createdAt,value
2023-04-28T00:09:45.078Z,116.00
2023-04-28T00:19:50.078Z,101.00
2023-04-28T00:29:54.765Z,67.60
2023-04-28T00:39:58.411Z,58.40
2023-04-28T00:50:06.838Z,86.90
2023-04-28T01:00:12.135Z,89.30
2023-04-28T01:10:15.973Z,104.10
2023-04-28T01:20:19.343Z,101.30
2023-04-28T01:30:23.091Z,71.00
2023-04-28T01:40:27.169Z,78.30
2023-04-28T01:50:31.022Z,115.00
2023-04-28T02:00:35.493Z,112.90
2023-04-28T02:10:39.268Z,112.40
2023-04-28T02:20:47.074Z,103.80
2023-04-28T02:30:51.145Z,113.10
2023-04-28T02:40:58.374Z,77.00
2023-04-28T02:51:02.130Z,67.40
2023-04-28T03:01:09.597Z,89.50
2023-04-28T03:11:13.475Z,105.60
2023-04-28T03:21:20.561Z,88.00
2023-04-28T03:31:24.201Z,97.30
2023-04-28T03:41:27.790Z,94.40
2023-04-28T03:51:31.241Z,74.00
2023-04-28T04:01:35.477Z,66.90
2023-04-28T04:11:39.153Z,101.80
2023-04-28T04:21:46.654Z,101.90
2023-04-28T04:31:53.520Z,92.80
2023-04-28T04:41:57.333Z,110.50
2023-04-28T04:52:01.589Z,107.00
2023-04-28T05:02:05.256Z,96.50
2023-04-28T05:12:08.521Z,74.40
2023-04-28T05:22:12.480Z,62.50
2023-04-28T05:32:16.352Z,57.40
2023-04-28T05:42:23.521Z,69.30
2023-04-28T05:52:27.802Z,51.00
2023-04-28T06:02:31.786Z,41.60
2023-04-28T06:12:35.988Z,48.00
2023-04-28T06:22:39.653Z,38.00
2023-04-28T06:32:46.391Z,42.90
2023-04-28T06:42:50.517Z,32.40
2023-04-28T06:52:54.144Z,19.50
2023-04-28T07:02:57.831Z,23.20
2023-04-28T07:13:26.174Z,21.60
2023-04-28T07:23:30.053Z,28.00
2023-04-28T07:43:37.305Z,21.00
2023-04-28T08:03:48.308Z,15.50
2023-04-28T08:13:52.744Z,16.20
2023-04-28T08:23:56.646Z,15.90
2023-04-28T08:34:00.497Z,11.10
2023-04-28T08:44:07.288Z,10.70
2023-04-28T08:54:25.435Z,14.60
2023-04-28T09:04:30.602Z,16.70
2023-04-28T09:14:36.023Z,12.50
2023-04-28T09:24:41.109Z,16.20
2023-04-28T09:34:44.842Z,12.80
2023-04-28T09:44:53.182Z,23.30
2023-04-28T09:54:58.239Z,11.70
2023-04-28T10:05:03.276Z,16.20
2023-04-28T10:15:09.471Z,20.10
2023-04-28T10:25:25.229Z,12.20
2023-04-28T10:35:43.497Z,12.80
2023-04-28T10:46:08.436Z,19.90
2023-04-28T10:56:14.746Z,9.30
2023-04-28T11:06:26.222Z,7.50
2023-04-28T11:16:48.269Z,13.00
2023-04-28T11:26:52.813Z,12.50
2023-04-28T11:36:56.977Z,11.10
2023-04-28T11:47:03.690Z,12.50
2023-04-28T11:57:17.150Z,10.80
2023-04-28T12:07:24.839Z,12.60
2023-04-28T12:17:30.259Z,9.50
2023-04-28T12:27:36.198Z,9.10
2023-04-28T12:37:42.861Z,7.60
2023-04-28T12:47:46.796Z,12.30
2023-04-28T12:57:51.194Z,9.50
2023-04-28T13:07:54.409Z,8.80
2023-04-28T13:17:58.092Z,13.90
2023-04-28T13:28:02.376Z,8.90
2023-04-28T13:38:06.767Z,11.70
2023-04-28T13:48:11.651Z,11.50
2023-04-28T13:58:18.165Z,9.90
2023-04-28T14:08:23.232Z,8.00
2023-04-28T14:18:33.274Z,7.50
2023-04-28T14:28:37.203Z,14.40
2023-04-28T14:38:40.813Z,19.20
2023-04-28T14:48:45.074Z,7.70
2023-04-28T14:58:49.529Z,10.30
2023-04-28T15:08:52.699Z,8.20
2023-04-28T15:18:57.219Z,8.70
2023-04-28T15:29:00.778Z,8.50
2023-04-28T15:39:09.892Z,8.60
2023-04-28T15:49:13.905Z,18.50
2023-04-28T15:59:18.464Z,14.40
2023-04-28T16:09:22.455Z,5.70
2023-04-28T16:19:26.492Z,7.50
2023-04-28T16:29:30.715Z,9.80
2023-04-28T16:39:34.621Z,9.70
2023-04-28T16:49:38.280Z,13.60
2023-04-28T16:59:41.865Z,17.70
2023-04-28T17:10:10.479Z,19.40
2023-04-28T17:20:18.948Z,13.50
2023-04-28T17:30:23.881Z,10.70
2023-04-28T17:40:27.475Z,20.10
2023-04-28T17:50:31.191Z,27.10
2023-04-28T18:00:34.907Z,39.80
2023-04-28T18:10:38.782Z,20.90
2023-04-28T18:20:42.249Z,25.70
2023-04-28T18:30:45.673Z,27.50
2023-04-28T18:40:55.356Z,16.60
2023-04-28T18:50:59.459Z,26.10
2023-04-28T19:01:03.071Z,20.90
2023-04-28T19:11:06.294Z,20.40
2023-04-28T19:21:13.653Z,21.90
2023-04-28T19:31:17.328Z,23.70
2023-04-28T19:51:24.441Z,26.00
2023-04-28T20:11:32.097Z,29.50
2023-04-28T20:21:36.429Z,25.10
2023-04-28T20:31:40.278Z,25.90
2023-04-28T20:41:48.063Z,35.10
2023-04-28T20:51:51.447Z,22.20
2023-04-28T21:01:55.297Z,26.40
2023-04-28T21:11:58.895Z,26.40
2023-04-28T21:22:03.780Z,21.50
2023-04-28T21:32:08.093Z,21.60
2023-04-28T21:42:11.874Z,17.10
2023-04-28T21:52:15.742Z,16.70
2023-04-28T22:02:19.717Z,19.10
2023-04-28T22:12:23.767Z,20.40
2023-04-28T22:22:27.335Z,18.40
2023-04-28T22:32:31.426Z,23.90
2023-04-28T22:52:39.775Z,24.60
2023-04-28T23:02:44.459Z,21.00
2023-04-28T23:12:48.273Z,29.10
2023-04-28T23:22:52.092Z,22.90
2023-04-28T23:32:59.728Z,28.60
2023-04-28T23:43:06.684Z,30.00
2023-04-28T23:53:10.479Z,40.40
